createdAt,value
2018-12-13T00:01:46.428Z,3.40
2018-12-13T00:04:14.591Z,3.40
2018-12-13T00:06:42.779Z,3.30
2018-12-13T00:09:10.941Z,3.30
2018-12-13T00:11:39.295Z,3.20
2018-12-13T00:14:07.500Z,3.20
2018-12-13T00:16:35.648Z,3.10
2018-12-13T00:19:03.832Z,3.00
2018-12-13T00:21:32.024Z,3.00
2018-12-13T00:24:00.200Z,2.90
2018-12-13T00:26:28.448Z,2.90
2018-12-13T00:28:56.633Z,2.80
2018-12-13T00:31:24.802Z,2.80
2018-12-13T00:33:53.442Z,2.70
2018-12-13T00:36:21.625Z,2.70
2018-12-13T00:38:49.805Z,2.70
2018-12-13T00:41:17.983Z,2.60
2018-12-13T00:43:46.271Z,2.60
2018-12-13T00:46:14.558Z,2.60
2018-12-13T00:48:42.763Z,2.60
2018-12-13T00:51:10.923Z,2.50
2018-12-13T00:53:39.112Z,2.50
2018-12-13T00:56:07.276Z,2.50
2018-12-13T00:58:35.456Z,2.50
2018-12-13T01:01:03.610Z,2.50
2018-12-13T01:03:31.794Z,2.40
2018-12-13T01:06:00.101Z,2.40
2018-12-13T01:08:28.271Z,2.40
2018-12-13T01:10:56.435Z,2.40
2018-12-13T01:13:24.617Z,2.30
2018-12-13T01:15:52.791Z,2.30
2018-12-13T01:18:20.984Z,2.30
2018-12-13T01:20:49.149Z,2.30
2018-12-13T01:23:17.321Z,2.30
2018-12-13T01:25:45.494Z,2.30
2018-12-13T01:28:13.684Z,2.30
2018-12-13T01:30:41.896Z,2.30
2018-12-13T01:33:10.046Z,2.30
2018-12-13T01:35:38.232Z,2.30
2018-12-13T01:38:06.397Z,2.40
2018-12-13T01:40:34.663Z,2.40
2018-12-13T01:43:02.865Z,2.40
2018-12-13T01:45:31.055Z,2.50
2018-12-13T01:47:59.227Z,2.50
2018-12-13T01:50:27.416Z,2.60
2018-12-13T01:52:55.582Z,2.60
2018-12-13T01:55:23.769Z,2.60
2018-12-13T01:57:51.933Z,2.70
2018-12-13T02:00:20.087Z,2.70
2018-12-13T02:02:48.266Z,2.70
2018-12-13T02:05:16.428Z,2.80
2018-12-13T02:07:44.613Z,2.90
2018-12-13T02:10:12.772Z,2.90
2018-12-13T02:12:40.951Z,2.90
2018-12-13T02:15:09.191Z,2.90
2018-12-13T02:17:37.375Z,2.90
2018-12-13T02:20:05.712Z,3.00
2018-12-13T02:22:33.992Z,3.00
2018-12-13T02:25:02.325Z,3.00
2018-12-13T02:27:30.507Z,2.90
2018-12-13T02:29:58.655Z,2.90
2018-12-13T02:32:26.843Z,2.80
2018-12-13T02:34:55.027Z,2.70
2018-12-13T02:37:23.197Z,2.60
2018-12-13T02:39:51.374Z,2.50
2018-12-13T02:42:19.589Z,2.50
2018-12-13T02:44:47.757Z,2.40
2018-12-13T02:47:15.925Z,2.30
2018-12-13T02:49:44.104Z,2.30
2018-12-13T02:52:12.387Z,2.30
2018-12-13T02:54:40.639Z,2.30
2018-12-13T02:57:08.981Z,2.30
2018-12-13T02:59:37.245Z,2.30
2018-12-13T03:02:05.428Z,2.30
2018-12-13T03:04:33.615Z,2.30
2018-12-13T03:07:01.861Z,2.30
2018-12-13T03:09:30.039Z,2.30
2018-12-13T03:11:58.229Z,2.20
2018-12-13T03:14:26.438Z,2.20
2018-12-13T03:16:54.690Z,2.10
2018-12-13T03:19:22.854Z,2.10
2018-12-13T03:21:51.039Z,2.00
2018-12-13T03:24:19.235Z,2.00
2018-12-13T03:26:47.434Z,1.90
2018-12-13T03:29:15.699Z,1.90
2018-12-13T03:31:43.865Z,1.90
2018-12-13T03:34:12.036Z,1.80
2018-12-13T03:36:40.220Z,1.90
2018-12-13T03:39:08.396Z,1.80
2018-12-13T03:41:36.679Z,1.80
2018-12-13T03:44:04.840Z,1.80
2018-12-13T03:46:33.022Z,1.80
2018-12-13T03:49:01.216Z,1.70
2018-12-13T03:51:29.411Z,1.70
2018-12-13T03:53:57.565Z,1.70
2018-12-13T03:56:25.761Z,1.60
2018-12-13T03:58:53.931Z,1.60
2018-12-13T04:01:22.117Z,1.60
2018-12-13T04:03:50.360Z,1.60
2018-12-13T04:06:18.533Z,1.60
2018-12-13T04:08:46.742Z,1.60
2018-12-13T04:11:14.889Z,1.50
2018-12-13T04:13:43.097Z,1.50
2018-12-13T04:16:11.234Z,1.50
2018-12-13T04:18:39.555Z,1.50
2018-12-13T04:21:07.747Z,1.40
2018-12-13T04:23:35.990Z,1.40
2018-12-13T04:26:04.144Z,1.40
2018-12-13T04:28:32.329Z,1.40
2018-12-13T04:31:00.491Z,1.40
2018-12-13T04:33:28.682Z,1.40
2018-12-13T04:35:56.863Z,1.30
2018-12-13T04:38:25.116Z,1.40
2018-12-13T04:40:53.291Z,1.40
2018-12-13T04:43:21.478Z,1.30
2018-12-13T04:45:49.648Z,1.30
2018-12-13T04:48:17.843Z,1.30
2018-12-13T04:50:46.025Z,1.30
2018-12-13T04:53:14.222Z,1.20
2018-12-13T04:55:42.472Z,1.20
2018-12-13T04:58:11.302Z,1.20
2018-12-13T05:00:39.481Z,1.20
2018-12-13T05:03:07.650Z,1.20
2018-12-13T05:05:35.826Z,1.20
2018-12-13T05:08:03.986Z,1.20
2018-12-13T05:10:55.164Z,1.20
2018-12-13T05:13:23.332Z,1.10
2018-12-13T05:15:51.586Z,1.10
2018-12-13T05:18:19.840Z,1.10
2018-12-13T05:20:48.120Z,1.10
2018-12-13T05:23:16.424Z,1.10
2018-12-13T05:25:44.608Z,1.00
2018-12-13T05:28:12.775Z,1.00
2018-12-13T05:30:41.044Z,1.00
2018-12-13T05:33:09.215Z,0.90
2018-12-13T05:35:37.373Z,0.90
2018-12-13T05:38:05.578Z,0.90
2018-12-13T05:40:34.197Z,0.90
2018-12-13T05:43:02.368Z,0.80
2018-12-13T05:45:30.540Z,0.90
2018-12-13T05:47:58.876Z,0.90
2018-12-13T05:50:27.070Z,0.80
2018-12-13T05:52:55.270Z,0.80
2018-12-13T05:55:23.447Z,0.80
2018-12-13T05:57:51.642Z,0.80
2018-12-13T06:00:19.809Z,0.80
2018-12-13T06:02:48.024Z,0.90
2018-12-13T06:05:16.168Z,0.80
2018-12-13T06:07:44.363Z,0.80
2018-12-13T06:10:12.549Z,0.80
2018-12-13T06:12:40.741Z,0.80
2018-12-13T06:15:08.917Z,0.80
2018-12-13T06:17:37.185Z,0.80
2018-12-13T06:20:06.631Z,0.80
2018-12-13T06:22:34.804Z,0.80
2018-12-13T06:25:03.510Z,0.80
2018-12-13T06:27:31.696Z,0.80
2018-12-13T06:29:59.862Z,0.80
2018-12-13T06:32:28.056Z,0.80
2018-12-13T06:34:56.208Z,0.80
2018-12-13T06:37:24.404Z,0.70
2018-12-13T06:39:52.590Z,0.70
2018-12-13T06:42:20.888Z,0.70
2018-12-13T06:44:49.151Z,0.70
2018-12-13T06:47:18.187Z,0.70
2018-12-13T06:49:46.358Z,0.70
2018-12-13T06:52:14.618Z,0.70
2018-12-13T06:54:42.741Z,0.70
2018-12-13T06:57:10.994Z,0.70
2018-12-13T06:59:39.158Z,0.70
2018-12-13T07:02:07.408Z,0.70
2018-12-13T07:04:35.757Z,0.70
2018-12-13T07:07:04.012Z,0.60
2018-12-13T07:09:32.200Z,0.60
2018-12-13T07:12:00.359Z,0.60
2018-12-13T07:14:28.565Z,0.60
2018-12-13T07:16:56.740Z,0.60
2018-12-13T07:19:24.924Z,0.60
2018-12-13T07:21:53.090Z,0.60
2018-12-13T07:24:21.269Z,0.60
2018-12-13T07:26:49.428Z,0.50
2018-12-13T07:29:17.624Z,0.50
2018-12-13T07:31:45.904Z,0.50
2018-12-13T07:34:14.064Z,0.50
2018-12-13T07:36:42.252Z,0.50
2018-12-13T07:39:10.421Z,0.50
2018-12-13T07:41:39.032Z,0.50
2018-12-13T07:44:07.171Z,0.50
2018-12-13T07:46:35.378Z,0.50
2018-12-13T07:49:03.622Z,0.50
2018-12-13T07:51:31.806Z,0.50
2018-12-13T07:53:59.966Z,0.50
2018-12-13T07:56:29.276Z,0.50
2018-12-13T07:58:57.616Z,0.50
2018-12-13T08:01:25.824Z,0.50
2018-12-13T08:03:54.008Z,0.50
2018-12-13T08:06:22.263Z,0.50
2018-12-13T08:08:50.444Z,0.60
2018-12-13T08:11:18.612Z,0.60
2018-12-13T08:13:46.792Z,0.60
2018-12-13T08:16:14.961Z,0.60
2018-12-13T08:18:43.141Z,0.70
2018-12-13T08:21:11.306Z,0.70
2018-12-13T08:23:39.489Z,0.70
2018-12-13T08:26:07.662Z,0.80
2018-12-13T08:28:35.858Z,0.80
2018-12-13T08:31:04.040Z,0.80
2018-12-13T08:33:32.226Z,0.90
2018-12-13T08:36:00.417Z,0.90
2018-12-13T08:38:28.583Z,1.00
2018-12-13T08:40:57.343Z,1.00
2018-12-13T08:43:25.595Z,1.00
2018-12-13T08:45:53.801Z,1.00
2018-12-13T08:48:21.982Z,1.10
2018-12-13T08:50:50.160Z,1.10
2018-12-13T08:53:18.336Z,1.10
2018-12-13T08:55:46.529Z,1.20
2018-12-13T08:58:14.784Z,1.20
2018-12-13T09:00:43.075Z,1.20
2018-12-13T09:03:11.236Z,1.30
2018-12-13T09:05:39.428Z,1.30
2018-12-13T09:08:07.634Z,1.30
2018-12-13T09:10:35.899Z,1.30
2018-12-13T09:13:04.101Z,1.40
2018-12-13T09:15:32.272Z,1.50
2018-12-13T09:18:00.525Z,1.50
2018-12-13T09:20:28.764Z,1.50
2018-12-13T09:22:56.935Z,1.60
2018-12-13T09:25:25.121Z,1.60
2018-12-13T09:27:53.296Z,1.60
2018-12-13T09:30:21.464Z,1.70
2018-12-13T09:32:49.665Z,1.80
2018-12-13T09:35:17.837Z,1.80
2018-12-13T09:37:47.693Z,1.80
2018-12-13T09:40:16.192Z,1.90
2018-12-13T09:42:44.333Z,1.90
2018-12-13T09:45:12.494Z,1.90
2018-12-13T09:47:40.681Z,1.90
2018-12-13T09:50:08.828Z,2.00
2018-12-13T09:52:36.988Z,2.00
2018-12-13T09:55:05.812Z,2.10
2018-12-13T09:57:34.296Z,2.10
2018-12-13T10:00:05.065Z,2.20
2018-12-13T10:02:33.240Z,2.20
2018-12-13T10:05:01.508Z,2.20
2018-12-13T10:07:29.656Z,2.30
2018-12-13T10:09:57.869Z,2.30
2018-12-13T10:12:26.029Z,2.30
2018-12-13T10:14:54.216Z,2.30
2018-12-13T10:17:22.380Z,2.30
2018-12-13T10:19:50.564Z,2.40
2018-12-13T10:22:18.720Z,2.50
2018-12-13T10:24:46.926Z,2.50
2018-12-13T10:27:15.092Z,2.50
2018-12-13T10:29:43.269Z,2.50
2018-12-13T10:32:11.454Z,2.50
2018-12-13T10:34:39.628Z,2.50
2018-12-13T10:39:53.588Z,2.60
2018-12-13T10:42:21.764Z,2.60
2018-12-13T10:44:50.519Z,2.60
2018-12-13T10:47:19.705Z,2.60
2018-12-13T10:49:48.660Z,2.70
2018-12-13T10:52:16.899Z,2.70
2018-12-13T10:54:45.079Z,2.80
2018-12-13T10:57:22.620Z,2.80
2018-12-13T10:59:52.389Z,2.80
2018-12-13T11:02:20.586Z,2.90
2018-12-13T11:04:48.759Z,2.90
2018-12-13T11:07:16.965Z,2.90
2018-12-13T11:09:45.131Z,2.90
2018-12-13T11:12:13.308Z,2.90
2018-12-13T11:14:41.568Z,3.00
2018-12-13T11:17:09.708Z,3.00
2018-12-13T11:19:37.877Z,3.10
2018-12-13T11:22:06.064Z,3.00
2018-12-13T11:24:34.230Z,3.00
2018-12-13T11:27:14.451Z,3.00
2018-12-13T11:29:57.644Z,3.10
2018-12-13T11:32:25.805Z,3.10
2018-12-13T11:34:54.502Z,3.10
2018-12-13T11:37:22.695Z,3.20
2018-12-13T11:39:50.935Z,3.20
2018-12-13T11:42:19.097Z,3.20
2018-12-13T11:44:47.268Z,3.20
2018-12-13T11:47:15.444Z,3.20
2018-12-13T11:49:43.603Z,3.10
2018-12-13T11:52:11.790Z,3.20
2018-12-13T11:54:41.237Z,3.20
2018-12-13T11:57:09.509Z,3.30
2018-12-13T11:59:37.696Z,3.30
2018-12-13T12:02:05.929Z,3.30
2018-12-13T12:04:34.137Z,3.30
2018-12-13T12:07:02.329Z,3.30
2018-12-13T12:09:30.549Z,3.30
2018-12-13T12:11:58.679Z,3.30
2018-12-13T12:14:26.976Z,3.30
2018-12-13T12:16:55.125Z,3.30
2018-12-13T12:19:23.304Z,3.40
2018-12-13T12:21:51.461Z,3.30
2018-12-13T12:24:20.012Z,3.40
2018-12-13T12:26:48.274Z,3.40
2018-12-13T12:29:16.443Z,3.40
2018-12-13T12:31:44.603Z,3.40
2018-12-13T12:34:12.808Z,3.40
2018-12-13T12:36:41.000Z,3.40
2018-12-13T12:39:09.156Z,3.50
2018-12-13T12:41:37.330Z,3.50
2018-12-13T12:44:05.485Z,3.60
2018-12-13T12:46:33.682Z,3.60
2018-12-13T12:49:01.837Z,3.60
2018-12-13T12:51:30.034Z,3.60
2018-12-13T12:53:58.196Z,3.60
2018-12-13T12:56:26.375Z,3.60
2018-12-13T12:58:54.545Z,3.50
2018-12-13T13:01:22.744Z,3.50
2018-12-13T13:03:50.916Z,3.50
2018-12-13T13:06:19.092Z,3.40
2018-12-13T13:08:47.267Z,3.50
2018-12-13T13:11:15.435Z,3.50
2018-12-13T13:13:43.598Z,3.40
2018-12-13T13:16:11.795Z,3.50
2018-12-13T13:18:39.960Z,3.40
2018-12-13T13:21:08.157Z,3.50
2018-12-13T13:23:36.403Z,3.40
2018-12-13T13:26:04.585Z,3.40
2018-12-13T13:28:32.841Z,3.40
2018-12-13T13:31:01.014Z,3.40
2018-12-13T13:33:29.189Z,3.30
2018-12-13T13:35:57.344Z,3.30
2018-12-13T13:38:25.534Z,3.30
2018-12-13T13:40:53.750Z,3.30
2018-12-13T13:43:21.928Z,3.20
2018-12-13T13:45:50.084Z,3.20
2018-12-13T13:48:18.308Z,3.20
2018-12-13T13:50:46.460Z,3.20
2018-12-13T13:53:14.637Z,3.20
2018-12-13T13:55:42.800Z,3.20
2018-12-13T13:58:11.770Z,3.20
2018-12-13T14:00:40.026Z,3.20
2018-12-13T14:03:08.196Z,3.20
2018-12-13T14:05:36.509Z,3.10
2018-12-13T14:08:04.724Z,3.10
2018-12-13T14:10:32.909Z,3.10
2018-12-13T14:13:01.076Z,3.10
2018-12-13T14:15:29.496Z,3.10
2018-12-13T14:17:57.720Z,3.10
2018-12-13T14:20:25.992Z,3.10
2018-12-13T14:22:54.163Z,3.00
2018-12-13T14:25:22.358Z,3.10
2018-12-13T14:27:50.542Z,3.00
2018-12-13T14:30:18.801Z,3.00
2018-12-13T14:32:47.024Z,3.00
2018-12-13T14:35:15.187Z,3.00
2018-12-13T14:37:43.337Z,3.00
2018-12-13T14:40:11.618Z,2.90
2018-12-13T14:42:39.823Z,2.90
2018-12-13T14:45:08.065Z,2.90
2018-12-13T14:47:36.270Z,2.90
2018-12-13T14:50:06.214Z,2.90
2018-12-13T14:52:34.400Z,2.80
2018-12-13T14:55:02.717Z,2.80
2018-12-13T14:57:30.941Z,2.80
2018-12-13T14:59:59.096Z,2.70
2018-12-13T15:02:27.279Z,2.70
2018-12-13T15:04:55.617Z,2.70
2018-12-13T15:07:23.796Z,2.60
2018-12-13T15:09:51.974Z,2.60
2018-12-13T15:12:20.262Z,2.50
2018-12-13T15:14:48.420Z,2.50
2018-12-13T15:17:16.602Z,2.40
2018-12-13T15:19:44.763Z,2.40
2018-12-13T15:22:12.968Z,2.40
2018-12-13T15:24:41.182Z,2.30
2018-12-13T15:40:32.170Z,2.30
2018-12-13T15:45:46.273Z,2.00
2018-12-13T15:48:14.550Z,2.00
2018-12-13T15:50:42.729Z,1.90
2018-12-13T15:53:11.294Z,1.90
2018-12-13T15:55:39.679Z,1.90
2018-12-13T15:58:08.094Z,1.90
2018-12-13T16:00:36.432Z,1.80
2018-12-13T16:03:04.802Z,1.80
2018-12-13T16:05:33.268Z,1.80
2018-12-13T16:08:01.578Z,1.80
2018-12-13T16:10:30.019Z,1.70
2018-12-13T16:12:58.852Z,1.70
2018-12-13T16:15:27.682Z,1.70
2018-12-13T16:17:56.242Z,1.70
2018-12-13T16:20:24.605Z,1.70
2018-12-13T16:22:52.866Z,1.70
2018-12-13T16:25:21.089Z,1.60
2018-12-13T16:27:49.279Z,1.60
2018-12-13T16:30:17.451Z,1.60
2018-12-13T16:32:45.649Z,1.60
2018-12-13T16:35:13.903Z,1.60
2018-12-13T16:37:42.068Z,1.50
2018-12-13T16:40:10.563Z,1.50
2018-12-13T16:42:38.972Z,1.50
2018-12-13T16:45:07.493Z,1.50
2018-12-13T16:47:35.688Z,1.40
2018-12-13T16:50:05.131Z,1.40
2018-12-13T16:52:33.307Z,1.40
2018-12-13T16:55:01.715Z,1.40
2018-12-13T16:57:29.951Z,1.40
2018-12-13T16:59:58.333Z,1.30
2018-12-13T17:02:26.571Z,1.30
2018-12-13T17:04:54.956Z,1.30
2018-12-13T17:07:23.120Z,1.30
2018-12-13T17:09:51.304Z,1.30
2018-12-13T17:12:19.899Z,1.30
2018-12-13T17:14:48.161Z,1.30
2018-12-13T17:17:17.072Z,1.20
2018-12-13T17:19:45.255Z,1.20
2018-12-13T17:22:13.422Z,1.20
2018-12-13T17:24:41.596Z,1.20
2018-12-13T17:27:09.791Z,1.20
2018-12-13T17:29:37.991Z,1.10
2018-12-13T17:32:06.173Z,1.10
2018-12-13T17:34:34.378Z,1.10
2018-12-13T17:37:02.659Z,1.10
2018-12-13T17:39:31.043Z,1.10
2018-12-13T17:41:59.216Z,1.10
2018-12-13T17:44:27.405Z,1.10
2018-12-13T17:46:55.606Z,1.10
2018-12-13T17:49:23.765Z,1.10
2018-12-13T17:51:51.943Z,1.10
2018-12-13T17:54:20.123Z,1.00
2018-12-13T17:56:49.518Z,1.00
2018-12-13T17:59:18.292Z,1.00
2018-12-13T18:01:46.481Z,1.00
2018-12-13T18:04:15.546Z,1.00
2018-12-13T18:06:43.869Z,1.00
2018-12-13T18:09:12.031Z,1.10
2018-12-13T18:11:41.084Z,1.10
2018-12-13T18:14:09.297Z,1.10
2018-12-13T18:16:43.248Z,1.20
2018-12-13T18:19:07.632Z,1.20
2018-12-13T18:21:35.861Z,1.30
2018-12-13T18:24:04.099Z,1.40
2018-12-13T18:26:32.272Z,1.40
2018-12-13T18:29:00.477Z,1.40
2018-12-13T18:31:28.637Z,1.40
2018-12-13T18:33:56.821Z,1.50
2018-12-13T18:36:25.080Z,1.50
2018-12-13T18:38:53.361Z,1.60
2018-12-13T18:41:21.521Z,1.60
2018-12-13T18:43:50.077Z,1.60
2018-12-13T18:46:18.250Z,1.70
2018-12-13T18:48:46.779Z,1.80
2018-12-13T18:51:14.956Z,1.80
2018-12-13T18:53:43.156Z,1.90
2018-12-13T18:56:11.332Z,1.90
2018-12-13T18:58:39.546Z,1.90
2018-12-13T19:01:07.715Z,2.00
2018-12-13T19:03:35.920Z,2.00
2018-12-13T19:06:04.513Z,2.00
2018-12-13T19:08:32.687Z,2.00
2018-12-13T19:11:00.858Z,2.10
2018-12-13T19:13:29.047Z,2.00
2018-12-13T19:15:57.229Z,2.10
2018-12-13T19:18:25.485Z,2.10
2018-12-13T19:20:53.718Z,2.10
2018-12-13T19:23:21.892Z,2.10
2018-12-13T19:25:51.001Z,2.10
2018-12-13T19:28:20.122Z,2.10
2018-12-13T19:30:48.386Z,2.20
2018-12-13T19:33:16.570Z,2.20
2018-12-13T19:35:44.837Z,2.20
2018-12-13T19:38:12.982Z,2.20
2018-12-13T19:40:41.184Z,2.30
2018-12-13T19:43:09.356Z,2.30
2018-12-13T19:45:37.646Z,2.30
2018-12-13T19:48:05.871Z,2.40
2018-12-13T19:50:34.055Z,2.40
2018-12-13T19:53:02.248Z,2.40
2018-12-13T19:55:30.414Z,2.40
2018-12-13T19:57:58.640Z,2.40
2018-12-13T20:00:26.826Z,2.40
2018-12-13T20:02:55.089Z,2.40
2018-12-13T20:05:23.245Z,2.50
2018-12-13T20:07:51.444Z,2.50
2018-12-13T20:10:19.664Z,2.50
2018-12-13T20:12:47.876Z,2.50
2018-12-13T20:15:16.111Z,2.50
2018-12-13T20:17:44.301Z,2.50
2018-12-13T20:20:12.557Z,2.50
2018-12-13T20:22:40.766Z,2.50
2018-12-13T20:25:08.933Z,2.50
2018-12-13T20:27:37.118Z,2.50
2018-12-13T20:30:06.510Z,2.50
2018-12-13T20:32:34.656Z,2.60
2018-12-13T20:35:04.649Z,2.50
2018-12-13T20:37:32.988Z,2.60
2018-12-13T20:40:01.184Z,2.50
2018-12-13T20:42:29.361Z,2.50
2018-12-13T20:44:57.535Z,2.60
2018-12-13T20:47:25.753Z,2.50
2018-12-13T20:49:53.905Z,2.50
2018-12-13T20:52:22.071Z,2.50
2018-12-13T20:54:50.290Z,2.50
2018-12-13T20:57:18.456Z,2.50
2018-12-13T20:59:46.675Z,2.50
2018-12-13T21:02:14.846Z,2.50
2018-12-13T21:04:43.118Z,2.50
2018-12-13T21:07:11.329Z,2.50
2018-12-13T21:09:39.524Z,2.40
2018-12-13T21:12:07.867Z,2.40
2018-12-13T21:14:36.045Z,2.40
2018-12-13T21:17:04.274Z,2.30
2018-12-13T21:19:32.479Z,2.20
2018-12-13T21:22:01.351Z,2.20
2018-12-13T21:24:29.513Z,2.20
2018-12-13T21:26:57.707Z,2.10
2018-12-13T21:29:25.981Z,2.10
2018-12-13T21:31:54.162Z,2.20
2018-12-13T21:34:23.109Z,2.20
2018-12-13T21:36:51.313Z,2.10
2018-12-13T21:39:19.515Z,2.10
2018-12-13T21:41:47.698Z,2.10
2018-12-13T21:44:16.176Z,2.00
2018-12-13T21:46:46.081Z,2.00
2018-12-13T21:49:14.275Z,1.90
2018-12-13T21:51:42.471Z,1.90
2018-12-13T21:54:10.656Z,1.90
2018-12-13T21:56:38.878Z,2.00
2018-12-13T21:59:07.106Z,2.00
2018-12-13T22:01:35.265Z,2.00
2018-12-13T22:04:03.555Z,2.00
2018-12-13T22:06:31.815Z,2.10
2018-12-13T22:09:00.031Z,2.10
2018-12-13T22:11:28.187Z,2.10
2018-12-13T22:13:56.478Z,2.10
2018-12-13T22:16:24.678Z,2.10
2018-12-13T22:18:52.933Z,2.10
2018-12-13T22:21:21.111Z,2.10
2018-12-13T22:23:49.355Z,2.10
2018-12-13T22:26:17.597Z,2.20
2018-12-13T22:28:45.789Z,2.20
2018-12-13T22:31:14.044Z,2.10
2018-12-13T22:33:42.228Z,2.20
2018-12-13T22:36:10.416Z,2.10
2018-12-13T22:38:38.568Z,2.10
2018-12-13T22:41:06.850Z,2.10
2018-12-13T22:43:35.109Z,2.10
2018-12-13T22:46:03.390Z,2.10
2018-12-13T22:48:32.334Z,2.10
2018-12-13T22:51:00.710Z,2.10
2018-12-13T22:53:29.157Z,2.10
2018-12-13T22:55:57.408Z,2.10
2018-12-13T22:58:25.661Z,2.00
2018-12-13T23:00:53.975Z,2.00
2018-12-13T23:03:22.126Z,2.00
2018-12-13T23:05:50.470Z,2.00
2018-12-13T23:08:18.653Z,2.00
2018-12-13T23:10:46.825Z,2.00
2018-12-13T23:13:15.082Z,2.00
2018-12-13T23:15:43.353Z,2.00
2018-12-13T23:18:12.403Z,2.00
2018-12-13T23:20:40.832Z,2.00
2018-12-13T23:23:09.022Z,2.00
2018-12-13T23:25:37.193Z,2.00
2018-12-13T23:28:05.390Z,2.00
2018-12-13T23:30:33.556Z,2.00
2018-12-13T23:33:01.740Z,2.00
2018-12-13T23:35:29.909Z,2.00
2018-12-13T23:37:58.105Z,2.00
2018-12-13T23:40:26.263Z,1.90
2018-12-13T23:42:54.453Z,1.90
2018-12-13T23:45:22.619Z,1.80
2018-12-13T23:47:50.786Z,1.80
2018-12-13T23:50:18.981Z,1.80
2018-12-13T23:52:47.173Z,1.80
2018-12-13T23:55:15.370Z,1.80
2018-12-13T23:57:43.535Z,1.80
